Time;durP1;ratioP1;P1;durP2;ratioP2;P2;SDS_P1;SDS_P2;PMS_P1;PMS_P2;Temp;Humidity;BMP_temperature;BMP_pressure;BME280_temperature;BME280_humidity;BME280_pressure;Samples;Min_cycle;Max_cycle;Signal;HPM_P1;HPM_P2
2021/01/26 00:01:37;;;;;;;33.70;24.17;;;;;;;-144.99;100.00;52521.47;5024382;28;20645;-73
2021/01/26 00:04:03;;;;;;;33.37;23.20;;;;;;;-144.99;100.00;52554.09;5038321;28;20616;-72
2021/01/26 00:06:29;;;;;;;27.87;22.13;;;;;;;-144.99;100.00;52511.28;5017289;28;20644;-73
2021/01/26 00:08:56;;;;;;;28.57;21.83;;;;;;;-144.99;100.00;52545.94;5033557;28;20652;-72
2021/01/26 00:11:22;;;;;;;32.50;21.77;;;;;;;-144.99;100.00;52541.84;5036148;28;20727;-73
2021/01/26 00:13:48;;;;;;;29.70;22.13;;;;;;;-144.99;100.00;52501.09;5029079;28;20942;-74
2021/01/26 00:16:14;;;;;;;34.20;25.40;;;;;;;-144.99;100.00;52578.53;5031608;28;20627;-74
2021/01/26 00:18:40;;;;;;;30.47;23.20;;;;;;;-144.99;100.00;52513.31;5025160;28;20629;-74
2021/01/26 00:21:06;;;;;;;32.73;24.17;;;;;;;-144.99;100.00;52525.56;5036803;28;20755;-73
2021/01/26 00:23:32;;;;;;;30.40;27.03;;;;;;;-144.99;100.00;52517.41;5024567;28;20632;-73
2021/01/26 00:25:59;;;;;;;31.00;25.00;;;;;;;-144.99;100.00;52570.38;5037070;28;20702;-73
2021/01/26 00:28:25;;;;;;;32.90;22.67;;;;;;;-144.99;100.00;52521.47;5019197;28;20644;-74
2021/01/26 00:30:51;;;;;;;29.40;24.73;;;;;;;-144.99;100.00;52533.69;5043263;28;20756;-74
2021/01/26 00:33:19;;;;;;;31.03;25.03;;;;;;;-144.99;100.00;52554.09;5033921;28;20616;-73
2021/01/26 00:35:46;;;;;;;28.50;22.40;;;;;;;-144.99;100.00;52533.69;5027774;28;20620;-73
2021/01/26 00:38:12;;;;;;;27.00;20.20;;;;;;;-144.99;100.00;52513.31;5025640;28;20628;-73
2021/01/26 00:40:39;;;;;;;30.53;24.40;;;;;;;-144.99;100.00;52529.63;5024852;28;20708;-74
2021/01/26 00:43:07;;;;;;;31.50;24.60;;;;;;;-144.99;100.00;52511.28;5040599;28;20608;-75
2021/01/26 00:45:34;;;;;;;31.07;21.47;;;;;;;-144.99;100.00;52541.84;5018340;28;20625;-73
2021/01/26 00:48:00;;;;;;;34.87;24.53;;;;;;;-144.99;100.00;52539.81;5032440;28;20689;-74
2021/01/26 00:50:27;;;;;;;27.23;23.00;;;;;;;-144.99;100.00;52582.63;5036173;28;20652;-74
2021/01/26 00:52:54;;;;;;;33.83;23.93;;;;;;;-144.99;100.00;52578.53;5027907;28;20632;-74
2021/01/26 00:55:22;;;;;;;32.00;22.83;;;;;;;-144.99;100.00;52554.09;5032561;28;20622;-71
2021/01/26 00:57:48;;;;;;;32.00;24.00;;;;;;;-144.99;100.00;52541.84;5023403;28;20635;-72
2021/01/26 01:00:19;;;;;;;31.33;23.93;;;;;;;-144.99;100.00;52531.66;5032053;28;20614;-73
2021/01/26 01:02:46;;;;;;;33.50;24.90;;;;;;;-144.99;100.00;52547.97;5042160;28;20643;-72
2021/01/26 01:05:13;;;;;;;28.23;22.00;;;;;;;-144.99;100.00;52537.78;5023544;28;20744;-73
2021/01/26 01:07:39;;;;;;;28.30;22.83;;;;;;;-144.99;100.00;52492.94;5030764;28;20950;-73
2021/01/26 01:10:07;;;;;;;30.23;25.10;;;;;;;-144.99;100.00;52594.84;5029954;28;21053;-72
2021/01/26 01:12:33;;;;;;;30.50;23.57;;;;;;;-144.99;100.00;52513.31;5028015;28;20667;-74
2021/01/26 01:15:00;;;;;;;31.83;24.27;;;;;;;-144.99;100.00;52582.63;5020695;28;21090;-73
2021/01/26 01:17:27;;;;;;;37.77;22.27;;;;;;;-144.99;100.00;52550.00;5032058;28;20778;-73
2021/01/26 01:19:53;;;;;;;28.37;23.70;;;;;;;-144.99;100.00;52558.16;5024283;28;20761;-74
2021/01/26 01:22:19;;;;;;;28.60;22.87;;;;;;;-144.99;100.00;52566.31;5044888;28;20704;-74
2021/01/26 01:24:45;;;;;;;31.87;26.13;;;;;;;-144.99;100.00;52541.84;5054517;28;20820;-74
2021/01/26 01:27:11;;;;;;;30.43;25.47;;;;;;;-144.99;100.00;52533.69;5037721;28;20698;-75
2021/01/26 01:29:37;;;;;;;37.30;24.03;;;;;;;-144.99;100.00;52545.94;5036766;28;21047;-74
2021/01/26 01:32:04;;;;;;;33.23;23.63;;;;;;;-144.99;100.00;52543.91;5021970;28;21294;-74
2021/01/26 01:34:31;;;;;;;34.37;25.23;;;;;;;-144.99;100.00;52533.69;5031998;28;20637;-74
2021/01/26 01:36:57;;;;;;;39.07;25.87;;;;;;;-144.99;100.00;52550.00;5020161;28;20705;-73
2021/01/26 01:39:23;;;;;;;33.97;25.40;;;;;;;-144.99;100.00;52554.09;5027413;28;20614;-73
2021/01/26 01:41:49;;;;;;;34.13;22.93;;;;;;;-144.99;100.00;52529.63;5036626;28;21131;-73
2021/01/26 01:44:15;;;;;;;27.37;22.83;;;;;;;-144.99;100.00;52529.63;5024231;28;20629;-73
2021/01/26 01:46:47;;;;;;;32.13;23.50;;;;;;;-144.99;100.00;52517.41;5033296;28;20624;-73
2021/01/26 01:49:17;;;;;;;34.70;25.47;;;;;;;-144.99;100.00;52582.63;5017522;28;20657;-73
2021/01/26 01:51:45;;;;;;;35.40;26.13;;;;;;;-144.99;100.00;52586.69;5026277;28;20688;-74
2021/01/26 01:54:15;;;;;;;30.93;24.43;;;;;;;-144.99;100.00;52562.25;5028436;28;20620;-73
2021/01/26 01:56:45;;;;;;;29.40;21.77;;;;;;;-144.99;100.00;52568.34;5029825;28;20638;-73
2021/01/26 01:59:17;;;;;;;29.43;23.30;;;;;;;-144.99;100.00;52545.94;5011735;28;20622;-72
2021/01/26 02:01:43;;;;;;;34.67;24.47;;;;;;;-144.99;100.00;52550.00;5026803;28;20677;-73
2021/01/26 02:04:14;;;;;;;35.03;26.17;;;;;;;-144.99;100.00;52529.63;5039586;28;20707;-73
2021/01/26 02:06:42;;;;;;;36.33;26.20;;;;;;;-144.99;100.00;52564.28;5028782;28;20621;-73
2021/01/26 02:09:14;;;;;;;34.57;23.33;;;;;;;-144.99;100.00;52570.38;5038624;28;21036;-72
2021/01/26 02:11:40;;;;;;;35.47;25.47;;;;;;;-144.99;100.00;52547.97;5029912;28;20680;-74
2021/01/26 02:14:06;;;;;;;35.60;25.10;;;;;;;-144.99;100.00;52537.78;5031227;28;20628;-74
2021/01/26 02:16:48;;;;;;;32.47;25.03;;;;;;;-144.99;100.00;52521.47;5032360;28;21037;-74
2021/01/26 02:19:44;;;;;;;33.50;24.63;;;;;;;-144.99;100.00;52517.41;5021516;28;20620;-72
2021/01/26 02:22:39;;;;;;;31.73;24.50;;;;;;;-144.99;100.00;52550.00;5024740;28;20711;-71
2021/01/26 02:25:24;;;;;;;33.63;24.67;;;;;;;-144.99;100.00;52507.19;5036051;28;20630;-71
2021/01/26 02:28:28;;;;;;;40.00;26.23;;;;;;;-144.99;100.00;52537.78;5016491;28;20660;-73
2021/01/26 02:31:21;;;;;;;31.30;22.93;;;;;;;-144.99;100.00;52541.84;5019918;28;20671;-73
2021/01/26 02:34:14;;;;;;;35.93;26.83;;;;;;;-144.99;100.00;52545.94;5033036;28;20929;-73
2021/01/26 02:37:10;;;;;;;31.83;25.73;;;;;;;-144.99;100.00;52570.38;5023960;28;20678;-73
2021/01/26 02:39:48;;;;;;;34.47;24.23;;;;;;;-144.99;100.00;52550.00;5012921;28;20632;-73
2021/01/26 02:42:30;;;;;;;30.80;23.27;;;;;;;-144.99;100.00;52541.84;5039448;28;20647;-73
2021/01/26 02:45:09;;;;;;;32.60;25.13;;;;;;;-144.99;100.00;52550.00;5019335;28;20629;-75
2021/01/26 02:47:43;;;;;;;38.07;26.20;;;;;;;-144.99;100.00;52570.38;5036257;28;20623;-74
2021/01/26 02:50:15;;;;;;;32.30;22.83;;;;;;;-144.99;100.00;52564.28;5029668;28;20649;-74
2021/01/26 02:52:53;;;;;;;34.53;24.60;;;;;;;-144.99;100.00;52543.91;5027863;28;20649;-74
2021/01/26 02:55:28;;;;;;;32.57;26.90;;;;;;;-144.99;100.00;52521.47;5035182;28;20639;-74
2021/01/26 02:58:01;;;;;;;32.20;25.33;;;;;;;-144.99;100.00;52515.34;5016054;28;20633;-74
2021/01/26 03:00:29;;;;;;;34.60;26.00;;;;;;;-144.99;100.00;52550.00;5029339;28;20613;-74
2021/01/26 03:03:01;;;;;;;36.50;27.13;;;;;;;-144.99;100.00;52533.69;5039319;28;20613;-74
2021/01/26 03:05:30;;;;;;;35.03;26.83;;;;;;;-144.99;100.00;52558.16;5024130;28;20617;-74
2021/01/26 03:08:00;;;;;;;39.27;28.23;;;;;;;-144.99;100.00;52505.16;5033243;28;20810;-74
2021/01/26 03:10:36;;;;;;;32.77;24.07;;;;;;;-144.99;100.00;52541.84;5036334;28;20650;-75
2021/01/26 03:13:07;;;;;;;33.47;26.70;;;;;;;-144.99;100.00;52568.34;5028161;28;20624;-74
2021/01/26 03:15:37;;;;;;;33.20;25.63;;;;;;;-144.99;100.00;52562.25;5034197;28;20637;-74
2021/01/26 03:18:06;;;;;;;32.03;25.97;;;;;;;-144.99;100.00;52554.09;5033128;28;20617;-75
2021/01/26 03:20:37;;;;;;;36.40;27.67;;;;;;;-144.99;100.00;52566.31;5024491;28;21223;-75
2021/01/26 03:23:07;;;;;;;33.90;26.13;;;;;;;-144.99;100.00;52562.25;5028770;28;20685;-73
2021/01/26 03:25:38;;;;;;;30.60;24.47;;;;;;;-144.99;100.00;52550.00;5034971;28;20964;-74
2021/01/26 03:28:08;;;;;;;31.70;22.27;;;;;;;-144.99;100.00;52509.25;5014313;28;20989;-75
2021/01/26 03:30:38;;;;;;;31.23;22.97;;;;;;;-144.99;100.00;52509.25;5030502;28;20655;-76
2021/01/26 03:33:07;;;;;;;32.17;24.17;;;;;;;-144.99;100.00;52529.63;5028684;28;20626;-76
2021/01/26 03:35:34;;;;;;;34.53;25.17;;;;;;;-144.99;100.00;52533.69;5033019;28;21203;-78
2021/01/26 03:38:12;;;;;;;38.20;26.40;;;;;;;-144.99;100.00;52558.16;5024156;28;20622;-73
2021/01/26 03:40:39;;;;;;;32.73;25.17;;;;;;;-144.99;100.00;52509.25;5024542;28;20613;-73
2021/01/26 03:43:05;;;;;;;40.03;27.70;;;;;;;-144.99;100.00;52543.91;5042504;28;20895;-74
2021/01/26 03:45:32;;;;;;;37.27;27.07;;;;;;;-144.99;100.00;52578.53;5014822;28;20691;-72
2021/01/26 03:48:10;;;;;;;31.50;24.47;;;;;;;-144.99;100.00;52533.69;5027188;28;20619;-75
2021/01/26 03:50:47;;;;;;;37.30;28.00;;;;;;;-144.99;100.00;52529.63;5016201;28;20975;-73
2021/01/26 03:53:36;;;;;;;34.10;26.57;;;;;;;-144.99;100.00;52488.84;5026541;28;20612;-73
2021/01/26 03:56:09;;;;;;;31.00;26.57;;;;;;;-144.99;100.00;52533.69;5027191;28;20620;-73
2021/01/26 03:58:48;;;;;;;33.27;26.47;;;;;;;-144.99;100.00;52539.81;5016835;28;21219;-73
2021/01/26 04:01:23;;;;;;;31.93;25.40;;;;;;;-144.99;100.00;52550.00;5026034;28;20637;-73
2021/01/26 04:03:57;;;;;;;37.77;25.57;;;;;;;-144.99;100.00;52537.78;5040374;28;20893;-73
2021/01/26 04:06:32;;;;;;;32.30;23.80;;;;;;;-144.99;100.00;52545.94;5015750;28;20625;-73
2021/01/26 04:09:02;;;;;;;32.87;26.53;;;;;;;-144.99;100.00;52517.41;5022815;28;20623;-73
2021/01/26 04:11:34;;;;;;;31.50;25.87;;;;;;;-144.99;100.00;52509.25;5036691;28;20752;-73
2021/01/26 04:14:05;;;;;;;29.47;22.37;;;;;;;-144.99;100.00;52527.59;5025533;28;20728;-74
2021/01/26 04:16:37;;;;;;;27.67;21.43;;;;;;;-144.99;100.00;52566.31;5029361;28;20621;-74
2021/01/26 04:19:07;;;;;;;35.23;25.43;;;;;;;-144.99;100.00;52517.41;5018318;28;20725;-73
2021/01/26 04:21:34;;;;;;;29.87;25.03;;;;;;;-144.99;100.00;52513.31;5034224;28;20739;-75
2021/01/26 04:24:01;;;;;;;32.57;25.90;;;;;;;-144.99;100.00;52545.94;5028782;28;20615;-74
2021/01/26 04:26:31;;;;;;;27.63;24.33;;;;;;;-144.99;100.00;52533.69;5028951;28;20695;-73
2021/01/26 04:28:57;;;;;;;30.70;23.93;;;;;;;-144.99;100.00;52545.94;5022236;28;20722;-73
2021/01/26 04:31:23;;;;;;;39.03;24.70;;;;;;;-144.99;100.00;52525.56;5022196;28;20708;-73
2021/01/26 04:33:50;;;;;;;35.53;26.43;;;;;;;-144.99;100.00;52529.63;5035474;28;21014;-73
2021/01/26 04:36:19;;;;;;;29.10;24.60;;;;;;;-144.99;100.00;52513.31;5020381;28;20717;-73
2021/01/26 04:38:45;;;;;;;26.67;22.83;;;;;;;-144.99;100.00;52521.47;5029721;28;20624;-73
2021/01/26 04:41:21;;;;;;;28.03;21.57;;;;;;;-144.99;100.00;52511.28;5026997;28;20651;-73
2021/01/26 04:44:00;;;;;;;40.33;30.43;;;;;;;-144.99;100.00;52562.25;5032143;28;20627;-72
2021/01/26 04:46:32;;;;;;;30.73;24.93;;;;;;;-144.99;100.00;52545.94;5026355;28;20677;-72
2021/01/26 04:49:07;;;;;;;31.00;23.30;;;;;;;-144.99;100.00;52558.16;5028939;28;20616;-72
2021/01/26 04:51:41;;;;;;;33.30;24.00;;;;;;;-144.99;100.00;52521.47;5029218;28;20823;-74
2021/01/26 04:54:29;;;;;;;30.97;24.63;;;;;;;-144.99;100.00;52529.63;5027790;28;20738;-73
2021/01/26 04:57:08;;;;;;;28.90;24.87;;;;;;;-144.99;100.00;52543.91;5019789;28;20629;-73
2021/01/26 04:59:51;;;;;;;29.23;21.07;;;;;;;-144.99;100.00;52488.84;5026891;28;20652;-73
2021/01/26 05:02:28;;;;;;;34.77;25.73;;;;;;;-144.99;100.00;52570.38;5032823;28;20643;-73
2021/01/26 05:05:01;;;;;;;33.93;25.20;;;;;;;-144.99;100.00;52574.47;5025106;28;20702;-74
2021/01/26 05:07:30;;;;;;;31.60;22.97;;;;;;;-144.99;100.00;52554.09;5028294;28;20618;-73
2021/01/26 05:10:02;;;;;;;36.43;24.87;;;;;;;-144.99;100.00;52560.19;5030359;28;20757;-73
2021/01/26 05:12:34;;;;;;;38.93;28.43;;;;;;;-144.99;100.00;52545.94;5035202;28;20959;-72
2021/01/26 05:15:04;;;;;;;30.33;22.93;;;;;;;-144.99;100.00;52509.25;5021250;28;21071;-73
2021/01/26 05:17:38;;;;;;;36.40;23.57;;;;;;;-144.99;100.00;52529.63;5032006;28;20773;-73
2021/01/26 05:20:10;;;;;;;28.80;21.63;;;;;;;-144.99;100.00;52541.84;5028523;28;20731;-73
2021/01/26 05:22:43;;;;;;;31.70;24.90;;;;;;;-144.99;100.00;52552.03;5034369;28;20795;-73
2021/01/26 05:25:11;;;;;;;30.33;24.43;;;;;;;-144.99;100.00;52576.50;5046344;28;20624;-76
2021/01/26 05:27:38;;;;;;;36.90;27.10;;;;;;;-144.99;100.00;52539.81;5030746;28;20652;-74
2021/01/26 05:30:10;;;;;;;33.23;23.60;;;;;;;-144.99;100.00;52529.63;5025790;28;20662;-75
2021/01/26 05:32:37;;;;;;;31.37;22.03;;;;;;;-144.99;100.00;52562.25;5022908;28;20653;-75
2021/01/26 05:35:04;;;;;;;31.40;24.00;;;;;;;-144.99;100.00;52525.56;5037276;28;20630;-73
2021/01/26 05:37:32;;;;;;;31.73;26.30;;;;;;;-144.99;100.00;52541.84;5015727;28;20772;-74
2021/01/26 05:40:04;;;;;;;34.13;25.47;;;;;;;-144.99;100.00;52562.25;5037174;28;20624;-74
2021/01/26 05:42:32;;;;;;;31.20;23.53;;;;;;;-144.99;100.00;52566.31;5039533;28;20760;-72
2021/01/26 05:45:02;;;;;;;30.90;25.50;;;;;;;-144.99;100.00;52517.41;5022463;28;20642;-72
2021/01/26 05:47:31;;;;;;;30.87;22.80;;;;;;;-144.99;100.00;52558.16;5027982;28;20643;-73
2021/01/26 05:49:58;;;;;;;32.00;24.63;;;;;;;-144.99;100.00;52537.78;5029099;28;20674;-72
2021/01/26 05:52:33;;;;;;;33.43;26.40;;;;;;;-144.99;100.00;52545.94;5023129;28;21227;-73
2021/01/26 05:55:00;;;;;;;32.23;23.57;;;;;;;-144.99;100.00;52558.16;5030716;28;20604;-73
2021/01/26 05:57:29;;;;;;;30.13;25.07;;;;;;;-144.99;100.00;52564.28;5018294;28;21095;-72
2021/01/26 06:00:17;;;;;;;29.73;23.93;;;;;;;-144.99;100.00;52550.00;5025945;28;20612;-74
2021/01/26 06:02:44;;;;;;;28.87;22.80;;;;;;;-144.99;100.00;52539.81;5036108;28;20653;-74
2021/01/26 06:05:17;;;;;;;31.40;23.13;;;;;;;-144.99;100.00;52550.00;5022468;28;20699;-74
2021/01/26 06:07:43;;;;;;;31.00;23.87;;;;;;;-144.99;100.00;52539.81;5031127;28;20609;-74
2021/01/26 06:10:18;;;;;;;27.87;21.63;;;;;;;-144.99;100.00;52494.97;5029380;28;20659;-74
2021/01/26 06:12:52;;;;;;;29.50;22.03;;;;;;;-144.99;100.00;52554.09;5034264;28;20657;-74
2021/01/26 06:15:22;;;;;;;35.27;25.87;;;;;;;-144.99;100.00;52513.31;5026841;28;20620;-73
2021/01/26 06:17:50;;;;;;;32.20;23.40;;;;;;;-144.99;100.00;52525.56;5040206;28;20623;-73
2021/01/26 06:20:19;;;;;;;33.80;24.43;;;;;;;-144.99;100.00;52523.50;5017800;28;20630;-73
2021/01/26 06:22:46;;;;;;;30.63;23.57;;;;;;;-144.99;100.00;52537.78;5034369;28;20720;-74
2021/01/26 06:25:19;;;;;;;33.57;25.90;;;;;;;-144.99;100.00;52564.28;5043749;28;20618;-73
2021/01/26 06:27:50;;;;;;;34.73;23.90;;;;;;;-144.99;100.00;52550.00;5027074;28;20636;-71
2021/01/26 06:30:25;;;;;;;37.60;25.70;;;;;;;-144.99;100.00;52554.09;5034424;28;20847;-71
2021/01/26 06:33:15;;;;;;;31.23;23.57;;;;;;;-144.99;100.00;52545.94;5030857;28;20955;-71
2021/01/26 06:35:52;;;;;;;28.93;24.53;;;;;;;-144.99;100.00;52562.25;5034740;28;20708;-71
2021/01/26 06:39:01;;;;;;;30.77;23.17;;;;;;;-144.99;100.00;52519.44;5029712;28;20993;-72
2021/01/26 06:41:39;;;;;;;29.43;24.73;;;;;;;-144.99;100.00;52552.03;5035856;28;20673;-74
2021/01/26 06:44:29;;;;;;;31.27;22.57;;;;;;;-144.99;100.00;52545.94;5032749;28;20717;-73
2021/01/26 06:47:13;;;;;;;34.97;24.23;;;;;;;-144.99;100.00;52541.84;5037504;28;20692;-74
2021/01/26 06:49:52;;;;;;;35.13;27.80;;;;;;;-144.99;100.00;52558.16;5023473;28;21050;-75
2021/01/26 06:52:32;;;;;;;37.37;27.43;;;;;;;-144.99;100.00;52533.69;5036829;28;20648;-75
2021/01/26 06:55:17;;;;;;;31.27;25.37;;;;;;;-144.99;100.00;52582.63;5039384;28;21011;-74
2021/01/26 06:58:34;;;;;;;33.57;26.07;;;;;;;-144.99;100.00;52586.69;5027473;28;20633;-75
2021/01/26 07:01:22;;;;;;;36.13;25.60;;;;;;;-144.99;100.00;52550.00;5014936;28;20861;-75
2021/01/26 07:04:25;;;;;;;36.70;25.90;;;;;;;-144.99;100.00;52598.94;5027477;28;20617;-75
2021/01/26 07:07:18;;;;;;;47.33;31.87;;;;;;;-144.99;100.00;52533.69;5022969;28;20655;-75
2021/01/26 07:10:02;;;;;;;46.17;32.80;;;;;;;-144.99;100.00;52570.38;5031310;28;20657;-74
2021/01/26 07:12:52;;;;;;;41.33;31.00;;;;;;;-144.99;100.00;52545.94;5037959;28;20710;-74
2021/01/26 07:15:30;;;;;;;45.03;33.23;;;;;;;-144.99;100.00;52539.81;5024939;28;21037;-74
2021/01/26 07:18:15;;;;;;;42.70;29.27;;;;;;;-144.99;100.00;52533.69;5025858;28;21069;-78
2021/01/26 07:20:57;;;;;;;38.50;30.30;;;;;;;-144.99;100.00;52562.25;5038047;28;20656;-77
2021/01/26 07:23:39;;;;;;;40.20;29.70;;;;;;;-144.99;100.00;52554.09;5028856;28;21248;-78
2021/01/26 07:26:31;;;;;;;39.30;29.83;;;;;;;-144.99;100.00;52537.78;5027466;28;20615;-77
2021/01/26 07:29:23;;;;;;;35.03;27.00;;;;;;;-144.99;100.00;52558.16;5023768;28;21008;-80
2021/01/26 07:31:55;;;;;;;35.77;27.57;;;;;;;-144.99;100.00;52550.00;5036138;28;21224;-76
2021/01/26 07:34:28;;;;;;;44.43;29.23;;;;;;;-144.99;100.00;52574.47;5022580;28;20672;-77
2021/01/26 07:37:00;;;;;;;38.33;27.97;;;;;;;-144.99;100.00;52529.63;5030079;28;21264;-75
2021/01/26 07:39:35;;;;;;;33.80;25.87;;;;;;;-144.99;100.00;52582.63;5028469;28;20700;-73
2021/01/26 07:42:07;;;;;;;46.43;31.80;;;;;;;-144.99;100.00;52541.84;5038292;28;20692;-74
2021/01/26 07:44:39;;;;;;;36.60;28.17;;;;;;;-144.99;100.00;52541.84;5021070;28;21165;-75
2021/01/26 07:47:17;;;;;;;31.83;24.60;;;;;;;-144.99;100.00;52525.56;5027604;28;20637;-74
2021/01/26 07:49:52;;;;;;;44.00;29.73;;;;;;;-144.99;100.00;52545.94;5019984;28;20648;-75
2021/01/26 07:52:21;;;;;;;33.37;28.03;;;;;;;-144.99;100.00;52537.78;5028355;28;20667;-78
2021/01/26 07:54:59;;;;;;;42.40;28.50;;;;;;;-144.99;100.00;52545.94;5034977;28;20676;-77
2021/01/26 07:57:30;;;;;;;38.43;27.50;;;;;;;-144.99;100.00;52497.00;5021589;28;20613;-78
2021/01/26 07:59:58;;;;;;;36.47;26.47;;;;;;;-144.99;100.00;52578.53;5036920;28;20709;-78
2021/01/26 08:02:27;;;;;;;53.67;37.73;;;;;;;-144.99;100.00;52525.56;5041001;28;20874;-78
2021/01/26 08:04:54;;;;;;;77.53;55.57;;;;;;;-144.99;100.00;52517.41;5033105;28;20724;-77
2021/01/26 08:07:23;;;;;;;115.90;85.97;;;;;;;-144.99;100.00;52570.38;5041367;28;21240;-77
2021/01/26 08:09:52;;;;;;;74.30;57.73;;;;;;;-144.99;100.00;52513.31;5031491;28;20654;-76
2021/01/26 08:12:21;;;;;;;63.27;48.03;;;;;;;-144.99;100.00;52525.56;5035484;28;20668;-74
2021/01/26 08:14:51;;;;;;;48.80;38.37;;;;;;;-144.99;100.00;52513.31;5014953;28;21219;-75
2021/01/26 08:17:28;;;;;;;44.90;35.57;;;;;;;-144.99;100.00;52509.25;5013839;28;20900;-74
2021/01/26 08:20:04;;;;;;;42.73;32.43;;;;;;;-144.99;100.00;52562.25;5017467;28;20629;-75
2021/01/26 08:22:33;;;;;;;36.60;30.10;;;;;;;-144.99;100.00;52554.09;5022802;28;20685;-75
2021/01/26 08:25:05;;;;;;;45.97;36.63;;;;;;;-144.99;100.00;52509.25;5030096;28;21223;-74
2021/01/26 08:27:51;;;;;;;52.33;37.63;;;;;;;-144.99;100.00;52513.31;5031533;28;20700;-75
2021/01/26 08:30:22;;;;;;;71.30;47.83;;;;;;;-144.99;100.00;52523.50;5022075;28;20683;-75
2021/01/26 08:33:08;;;;;;;50.80;39.10;;;;;;;-144.99;100.00;52566.31;5031854;28;20974;-76
2021/01/26 08:36:11;;;;;;;46.53;36.20;;;;;;;-144.99;100.00;52529.63;5030035;28;20637;-77
2021/01/26 08:38:48;;;;;;;41.20;32.70;;;;;;;-144.99;100.00;52545.94;5028584;28;20629;-76
2021/01/26 08:41:34;;;;;;;35.90;29.80;;;;;;;-144.99;100.00;52558.16;5020899;28;20664;-76
2021/01/26 08:44:00;;;;;;;40.23;26.63;;;;;;;-144.99;100.00;52537.78;5024676;28;20624;-75
2021/01/26 08:46:36;;;;;;;35.60;30.70;;;;;;;-144.99;100.00;52517.41;5017577;28;21061;-76
2021/01/26 08:49:04;;;;;;;34.83;30.33;;;;;;;-144.99;100.00;52513.31;5025295;28;20956;-74
2021/01/26 08:51:31;;;;;;;33.93;29.07;;;;;;;-144.99;100.00;52521.47;5016038;28;21085;-75
2021/01/26 08:53:58;;;;;;;42.57;30.10;;;;;;;-144.99;100.00;52499.06;5012691;28;20632;-76
2021/01/26 08:56:41;;;;;;;36.47;28.87;;;;;;;-144.99;100.00;52521.47;5022715;28;20621;-76
2021/01/26 08:59:10;;;;;;;39.97;29.27;;;;;;;-144.99;100.00;52550.00;5022933;28;20632;-77
2021/01/26 09:01:53;;;;;;;43.30;32.87;;;;;;;-144.99;100.00;52497.00;5027417;28;20679;-76
2021/01/26 09:04:45;;;;;;;45.07;32.17;;;;;;;-144.99;100.00;52492.94;5020613;28;20637;-75
2021/01/26 09:07:47;;;;;;;40.50;30.93;;;;;;;-144.99;100.00;52505.16;5016483;28;20638;-75
2021/01/26 09:10:23;;;;;;;40.90;32.90;;;;;;;-144.99;100.00;52541.84;5009628;28;21239;-75
2021/01/26 09:12:58;;;;;;;37.50;29.27;;;;;;;-144.99;100.00;52545.94;5024399;28;20651;-75
2021/01/26 09:15:25;;;;;;;38.13;29.63;;;;;;;-144.99;100.00;52519.44;5009487;28;20620;-74
2021/01/26 09:17:56;;;;;;;39.77;30.00;;;;;;;-144.99;100.00;52505.16;5014215;28;20633;-76
2021/01/26 09:20:25;;;;;;;37.37;32.30;;;;;;;-144.99;100.00;52521.47;5023905;28;20628;-76
2021/01/26 09:23:01;;;;;;;39.33;31.23;;;;;;;-144.99;100.00;52517.41;5015899;28;20670;-74
2021/01/26 09:25:32;;;;;;;39.60;31.87;;;;;;;-144.99;100.00;52509.25;5026455;28;20636;-75
2021/01/26 09:28:06;;;;;;;42.33;32.07;;;;;;;-144.99;100.00;52529.63;5026334;28;20627;-74
2021/01/26 09:30:35;;;;;;;38.70;30.33;;;;;;;-144.99;100.00;52492.94;5024457;28;20680;-73
2021/01/26 09:33:16;;;;;;;41.73;28.83;;;;;;;-144.99;100.00;52537.78;5018318;28;20608;-74
2021/01/26 09:35:45;;;;;;;43.37;32.17;;;;;;;-144.99;100.00;52521.47;5027136;28;20630;-76
2021/01/26 09:38:15;;;;;;;42.37;34.37;;;;;;;-144.99;100.00;52494.97;5023683;28;20659;-75
2021/01/26 09:40:44;;;;;;;35.67;28.00;;;;;;;-144.99;100.00;52511.28;5023391;28;20717;-74
2021/01/26 09:43:15;;;;;;;38.43;32.33;;;;;;;-144.99;100.00;52513.31;5038404;28;20727;-74
2021/01/26 09:45:42;;;;;;;42.70;30.97;;;;;;;-144.99;100.00;52494.97;5022052;28;20632;-74
2021/01/26 09:48:12;;;;;;;37.97;31.77;;;;;;;-144.99;100.00;52505.16;5029762;28;20661;-73
2021/01/26 09:50:39;;;;;;;35.67;31.70;;;;;;;-144.99;100.00;52537.78;5024704;28;20712;-74
2021/01/26 09:53:06;;;;;;;42.93;32.27;;;;;;;-144.99;100.00;52509.25;5025615;28;20626;-74
2021/01/26 09:55:36;;;;;;;39.60;29.70;;;;;;;-144.99;100.00;52525.56;5032706;28;20841;-74
2021/01/26 09:58:02;;;;;;;32.57;26.97;;;;;;;-144.99;100.00;52462.34;5015587;28;20635;-73
2021/01/26 10:00:30;;;;;;;36.13;28.53;;;;;;;-144.99;100.00;52464.41;5031129;28;20620;-74
2021/01/26 10:02:59;;;;;;;32.30;27.27;;;;;;;-144.99;100.00;52488.84;5034240;28;21177;-73
2021/01/26 10:05:27;;;;;;;32.60;26.90;;;;;;;-144.99;100.00;52509.25;5026383;28;21044;-74
2021/01/26 10:08:22;;;;;;;32.13;26.80;;;;;;;-144.99;96.76;52488.84;5026843;28;20715;-72
2021/01/26 10:10:49;;;;;;;32.23;25.77;;;;;;;-144.99;92.59;52492.94;5020550;28;20873;-73
2021/01/26 10:13:33;;;;;;;29.53;22.57;;;;;;;-144.99;87.86;52444.03;5025822;28;20672;-73
2021/01/26 10:16:22;;;;;;;29.87;24.40;;;;;;;-144.99;83.66;52446.06;5021486;28;21165;-74
2021/01/26 10:18:48;;;;;;;25.83;21.77;;;;;;;-144.99;80.46;52448.09;5022714;28;21141;-73
2021/01/26 10:21:25;;;;;;;26.00;20.50;;;;;;;-144.99;77.72;52370.63;5027656;28;20679;-75
2021/01/26 10:23:59;;;;;;;25.50;17.37;;;;;;;-144.99;73.06;52423.63;5023149;28;20984;-73
2021/01/26 10:26:27;;;;;;;21.73;17.33;;;;;;;-144.99;68.92;52399.19;5027308;28;20752;-76
2021/01/26 10:29:22;;;;;;;18.37;15.50;;;;;;;-144.99;67.68;52370.63;5015726;28;20212;-72
2021/01/26 10:31:53;;;;;;;20.47;14.43;;;;;;;-144.99;65.34;52364.53;5008036;28;20233;-77
2021/01/26 10:34:39;;;;;;;20.07;16.83;;;;;;;-144.99;64.82;52333.94;5031324;28;20202;-76
2021/01/26 10:37:30;;;;;;;20.83;14.93;;;;;;;-144.99;62.75;52386.94;5012179;28;20634;-74
2021/01/26 10:40:31;;;;;;;22.80;16.83;;;;;;;-144.99;61.17;52305.41;5016574;28;20201;-74
2021/01/26 10:43:02;;;;;;;19.33;13.40;;;;;;;-144.99;60.37;52305.41;5016616;28;20679;-75
2021/01/26 10:45:43;;;;;;;19.03;16.93;;;;;;;-144.99;57.91;52211.66;5019516;28;20270;-75
2021/01/26 10:48:17;;;;;;;20.53;15.23;;;;;;;-144.99;58.34;52268.72;5013534;28;20488;-74
2021/01/26 10:50:43;;;;;;;19.17;16.20;;;;;;;-144.99;57.31;52240.19;5019539;28;20588;-75
2021/01/26 10:53:10;;;;;;;18.23;15.33;;;;;;;-144.99;54.55;52227.97;5020131;28;20569;-74
2021/01/26 10:55:36;;;;;;;19.10;14.23;;;;;;;-144.99;54.91;52297.25;5032680;28;20200;-75
2021/01/26 10:58:03;;;;;;;20.33;14.07;;;;;;;-144.99;55.32;52276.88;5015181;28;20230;-76
2021/01/26 11:00:29;;;;;;;19.60;14.17;;;;;;;-144.99;55.17;52272.81;5027705;28;20361;-73
2021/01/26 11:02:56;;;;;;;19.27;13.97;;;;;;;-144.99;54.33;52260.56;5037952;28;20319;-75
2021/01/26 11:05:24;;;;;;;17.30;14.43;;;;;;;-144.99;52.67;52276.88;5021596;28;20261;-76
2021/01/26 11:07:50;;;;;;;18.87;14.40;;;;;;;-144.99;53.79;52301.34;5030317;28;20209;-75
2021/01/26 11:10:17;;;;;;;14.17;12.13;;;;;;;-144.99;54.97;52305.41;5032377;28;20249;-76
2021/01/26 11:12:44;;;;;;;14.57;12.03;;;;;;;-144.99;54.80;52227.97;5023789;28;20671;-74
2021/01/26 11:15:13;;;;;;;15.67;12.50;;;;;;;-144.99;53.40;52256.50;5021170;28;20191;-76
2021/01/26 11:17:39;;;;;;;14.43;11.80;;;;;;;-144.99;51.96;52264.66;5037000;28;20305;-75
2021/01/26 11:20:07;;;;;;;14.97;13.50;;;;;;;-144.99;52.51;52238.16;5035420;28;20229;-74
2021/01/26 11:22:34;;;;;;;14.10;11.10;;;;;;;-144.99;51.39;52199.44;5025718;28;20250;-76